createdAt,value
2016-08-09T00:00:32.092Z,66.25
2016-08-09T00:01:30.993Z,66.22
2016-08-09T00:02:24.506Z,66.14
2016-08-09T00:03:33.889Z,66.10
2016-08-09T00:04:32.726Z,66.10
2016-08-09T00:05:32.842Z,66.30
2016-08-09T00:06:22.194Z,66.58
2016-08-09T00:07:33.315Z,66.68
2016-08-09T00:08:48.546Z,66.59
2016-08-09T00:09:37.522Z,66.61
2016-08-09T00:10:14.200Z,66.59
2016-08-09T00:11:38.782Z,65.78
2016-08-09T00:12:44.957Z,65.59
2016-08-09T00:13:49.060Z,65.70
2016-08-09T00:14:18.100Z,65.88
2016-08-09T00:15:41.532Z,66.00
2016-08-09T00:16:32.551Z,66.89
2016-08-09T00:17:20.597Z,67.41
2016-08-09T00:18:53.764Z,67.51
2016-08-09T00:19:38.540Z,67.46
2016-08-09T00:20:40.929Z,67.42
2016-08-09T00:21:28.728Z,67.39
2016-08-09T00:22:32.573Z,67.28
2016-08-09T00:23:39.080Z,67.28
2016-08-09T00:24:50.272Z,67.26
2016-08-09T00:25:31.850Z,67.29
2016-08-09T00:26:15.912Z,67.12
2016-08-09T00:27:43.771Z,66.95
2016-08-09T00:28:44.364Z,66.87
2016-08-09T00:29:43.131Z,66.74
2016-08-09T00:30:31.552Z,66.92
2016-08-09T00:31:32.561Z,67.06
2016-08-09T00:32:46.918Z,66.12
2016-08-09T00:33:44.344Z,66.25
2016-08-09T00:34:38.306Z,66.17
2016-08-09T00:35:38.051Z,66.32
2016-08-09T00:36:40.334Z,66.29
2016-08-09T00:37:32.702Z,66.31
2016-08-09T00:38:43.983Z,66.49
2016-08-09T00:39:39.862Z,67.02
2016-08-09T00:40:33.210Z,67.17
2016-08-09T00:41:31.803Z,67.28
2016-08-09T00:42:14.761Z,67.23
2016-08-09T00:43:38.532Z,66.99
2016-08-09T00:44:47.360Z,66.98
2016-08-09T00:45:42.564Z,66.94
2016-08-09T00:46:43.889Z,66.81
2016-08-09T00:47:35.372Z,66.75
2016-08-09T00:48:38.618Z,66.69
2016-08-09T00:49:38.630Z,66.64
2016-08-09T00:50:36.738Z,66.95
2016-08-09T00:51:33.018Z,67.15
2016-08-09T00:52:41.805Z,67.32
2016-08-09T00:53:44.209Z,67.07
2016-08-09T00:54:34.361Z,66.98
2016-08-09T00:55:44.507Z,67.05
2016-08-09T00:56:32.649Z,67.16
2016-08-09T00:57:32.954Z,67.23
2016-08-09T00:58:37.205Z,67.12
2016-08-09T00:59:35.727Z,66.98
2016-08-09T01:00:42.093Z,66.96
2016-08-09T01:01:27.130Z,66.82
2016-08-09T01:02:51.579Z,67.05
2016-08-09T01:03:40.415Z,67.35
2016-08-09T01:04:41.176Z,67.60
2016-08-09T01:05:34.656Z,67.54
2016-08-09T01:06:30.531Z,67.61
2016-08-09T01:07:44.453Z,67.54
2016-08-09T01:08:16.905Z,67.54
2016-08-09T01:09:35.902Z,67.70
2016-08-09T01:10:36.539Z,67.64
2016-08-09T01:11:18.030Z,67.61
2016-08-09T01:12:36.575Z,67.61
2016-08-09T01:13:38.450Z,66.58
2016-08-09T01:14:46.034Z,66.51
2016-08-09T01:15:19.092Z,66.47
2016-08-09T01:16:41.757Z,66.49
2016-08-09T01:17:49.418Z,66.40
2016-08-09T01:18:31.401Z,66.41
2016-08-09T01:19:42.614Z,66.43
2016-08-09T01:20:38.233Z,67.81
2016-08-09T01:21:42.697Z,67.82
2016-08-09T01:22:42.566Z,67.99
2016-08-09T01:23:42.458Z,67.81
2016-08-09T01:24:20.173Z,67.73
2016-08-09T01:25:30.635Z,67.52
2016-08-09T01:26:43.060Z,67.36
2016-08-09T01:27:43.562Z,67.27
2016-08-09T01:28:53.530Z,67.15
2016-08-09T01:29:41.909Z,66.71
2016-08-09T01:30:44.638Z,66.55
2016-08-09T01:31:37.404Z,66.54
2016-08-09T01:32:47.205Z,66.31
2016-08-09T01:33:44.041Z,66.09
2016-08-09T01:34:15.329Z,65.93
2016-08-09T01:35:38.728Z,65.86
2016-08-09T01:36:30.891Z,65.97
2016-08-09T01:37:16.779Z,66.18
2016-08-09T01:39:08.389Z,66.17
2016-08-09T01:39:44.319Z,66.66
2016-08-09T01:40:33.776Z,66.65
2016-08-09T01:41:38.435Z,66.87
2016-08-09T01:42:43.392Z,67.02
2016-08-09T01:43:35.026Z,67.23
2016-08-09T01:44:30.980Z,67.33
2016-08-09T01:45:31.141Z,67.03
2016-08-09T01:46:38.193Z,66.58
2016-08-09T01:47:36.889Z,66.49
2016-08-09T01:48:46.700Z,66.31
2016-08-09T01:49:13.976Z,66.18
2016-08-09T01:50:32.467Z,66.13
2016-08-09T01:51:34.518Z,66.11
2016-08-09T01:52:49.646Z,66.10
2016-08-09T01:53:38.446Z,66.14
2016-08-09T01:54:42.564Z,66.15
2016-08-09T01:55:33.277Z,66.09
2016-08-09T01:56:26.921Z,66.13
2016-08-09T01:57:19.813Z,66.31
2016-08-09T01:58:43.197Z,66.44
2016-08-09T01:59:32.626Z,66.50
2016-08-09T02:00:42.918Z,66.68
2016-08-09T02:01:27.616Z,66.87
2016-08-09T02:02:51.999Z,66.87
2016-08-09T02:03:38.225Z,66.88
2016-08-09T02:04:19.169Z,66.95
2016-08-09T02:05:40.617Z,67.05
2016-08-09T02:07:02.944Z,66.88
2016-08-09T02:07:42.205Z,66.71
2016-08-09T02:08:43.005Z,66.75
2016-08-09T02:09:35.690Z,66.88
2016-08-09T02:10:48.099Z,66.96
2016-08-09T02:11:52.163Z,67.25
2016-08-09T02:12:24.286Z,67.26
2016-08-09T02:13:39.692Z,67.38
2016-08-09T02:14:33.846Z,67.36
2016-08-09T02:15:37.960Z,67.39
2016-08-09T02:16:37.380Z,67.40
2016-08-09T02:17:31.994Z,66.36
2016-08-09T02:18:30.871Z,66.20
2016-08-09T02:19:47.389Z,66.15
2016-08-09T02:20:44.790Z,66.28
2016-08-09T02:21:32.532Z,67.04
2016-08-09T02:22:46.159Z,67.12
2016-08-09T02:23:55.351Z,67.26
2016-08-09T02:24:38.857Z,67.42
2016-08-09T02:25:57.785Z,67.60
2016-08-09T02:26:39.057Z,67.84
2016-08-09T02:27:43.051Z,68.05
2016-08-09T02:28:49.034Z,68.06
2016-08-09T02:29:41.528Z,68.08
2016-08-09T02:30:43.960Z,68.08
2016-08-09T02:31:37.790Z,68.12
2016-08-09T02:32:37.390Z,68.10
2016-08-09T02:33:45.212Z,68.15
2016-08-09T02:34:38.987Z,68.27
2016-08-09T02:35:44.978Z,68.20
2016-08-09T02:36:48.659Z,68.50
2016-08-09T02:37:21.646Z,68.63
2016-08-09T02:38:33.163Z,68.75
2016-08-09T02:39:37.678Z,68.79
2016-08-09T02:40:38.200Z,68.87
2016-08-09T02:41:37.490Z,69.23
2016-08-09T02:42:49.303Z,69.28
2016-08-09T02:43:31.598Z,69.24
2016-08-09T02:44:43.341Z,69.29
2016-08-09T02:45:28.376Z,69.23
2016-08-09T02:46:37.871Z,69.30
2016-08-09T02:47:45.454Z,69.40
2016-08-09T02:48:44.230Z,69.31
2016-08-09T02:49:30.637Z,69.24
2016-08-09T02:50:42.652Z,69.35
2016-08-09T02:51:52.201Z,69.46
2016-08-09T02:52:43.152Z,69.57
2016-08-09T02:53:42.755Z,69.50
2016-08-09T02:54:37.672Z,69.41
2016-08-09T02:55:13.960Z,69.40
2016-08-09T02:56:33.339Z,69.26
2016-08-09T02:57:48.123Z,69.20
2016-08-09T02:58:44.035Z,69.27
2016-08-09T02:59:43.447Z,69.30
2016-08-09T03:00:37.878Z,69.57
2016-08-09T03:01:38.481Z,69.62
2016-08-09T03:02:15.652Z,69.56
2016-08-09T03:03:44.277Z,69.53
2016-08-09T03:04:42.484Z,69.51
2016-08-09T03:05:42.857Z,69.39
2016-08-09T03:06:46.831Z,68.18
2016-08-09T03:07:46.284Z,68.70
2016-08-09T03:08:44.855Z,68.72
2016-08-09T03:09:29.191Z,68.71
2016-08-09T03:10:36.974Z,68.72
2016-08-09T03:11:38.156Z,68.68
2016-08-09T03:12:36.347Z,68.65
2016-08-09T03:13:53.246Z,68.49
2016-08-09T03:14:47.591Z,68.50
2016-08-09T03:15:14.629Z,68.36
2016-08-09T03:16:13.541Z,68.31
2016-08-09T03:17:47.366Z,68.23
2016-08-09T03:18:27.005Z,68.13
2016-08-09T03:19:44.733Z,67.78
2016-08-09T03:20:39.401Z,67.56
2016-08-09T03:21:31.488Z,67.42
2016-08-09T03:22:13.751Z,66.91
2016-08-09T03:23:14.531Z,66.76
2016-08-09T03:24:42.090Z,65.99
2016-08-09T03:25:41.698Z,64.99
2016-08-09T03:26:35.303Z,64.88
2016-08-09T03:27:13.751Z,64.50
2016-08-09T03:28:38.949Z,64.26
2016-08-09T03:29:26.097Z,63.88
2016-08-09T03:30:46.907Z,63.86
2016-08-09T03:31:33.123Z,63.94
2016-08-09T03:33:38.046Z,63.96
2016-08-09T03:34:51.689Z,64.10
2016-08-09T03:35:39.234Z,64.22
2016-08-09T03:36:38.765Z,64.22
2016-08-09T03:37:42.968Z,64.17
2016-08-09T03:38:26.440Z,64.20
2016-08-09T03:39:46.268Z,64.37
2016-08-09T03:40:21.730Z,64.26
2016-08-09T03:41:44.727Z,64.30
2016-08-09T03:42:45.134Z,64.20
2016-08-09T03:43:37.961Z,64.42
2016-08-09T03:44:41.046Z,64.46
2016-08-09T03:45:37.860Z,64.67
2016-08-09T03:46:44.053Z,64.88
2016-08-09T03:48:36.746Z,65.50
2016-08-09T03:49:42.807Z,66.02
2016-08-09T03:50:32.498Z,66.51
2016-08-09T03:51:34.310Z,66.86
2016-08-09T03:52:23.889Z,67.32
2016-08-09T03:53:21.280Z,67.63
2016-08-09T03:54:39.034Z,67.87
2016-08-09T03:55:32.968Z,68.04
2016-08-09T03:56:33.392Z,68.45
2016-08-09T03:57:27.330Z,68.69
2016-08-09T03:58:35.717Z,67.91
2016-08-09T03:59:36.411Z,68.12
2016-08-09T04:00:41.496Z,68.74
2016-08-09T04:01:47.646Z,68.78
2016-08-09T04:02:44.465Z,69.28
2016-08-09T04:03:32.239Z,69.15
2016-08-09T04:04:33.673Z,69.46
2016-08-09T04:05:42.948Z,70.30
2016-08-09T04:06:33.106Z,71.21
2016-08-09T04:07:36.780Z,71.87
2016-08-09T04:08:44.718Z,71.59
2016-08-09T04:09:40.128Z,71.49
2016-08-09T04:10:24.112Z,71.25
2016-08-09T04:11:19.935Z,71.76
2016-08-09T04:12:29.280Z,71.65
2016-08-09T04:13:37.937Z,72.29
2016-08-09T04:14:38.713Z,72.13
2016-08-09T04:15:43.488Z,72.28
2016-08-09T04:16:38.472Z,72.10
2016-08-09T04:18:44.805Z,71.69
2016-08-09T04:19:37.558Z,71.01
2016-08-09T04:20:53.244Z,70.73
2016-08-09T04:21:18.467Z,71.05
2016-08-09T04:22:48.275Z,71.99
2016-08-09T04:23:46.996Z,71.91
2016-08-09T04:24:56.604Z,71.99
2016-08-09T04:25:52.706Z,72.33
2016-08-09T04:26:37.655Z,71.86
2016-08-09T04:27:51.739Z,71.73
2016-08-09T04:28:44.514Z,71.83
2016-08-09T04:29:38.337Z,71.72
2016-08-09T04:30:33.162Z,71.74
2016-08-09T04:31:16.503Z,71.70
2016-08-09T04:33:30.854Z,71.56
2016-08-09T04:34:38.201Z,71.52
2016-08-09T04:35:36.952Z,71.89
2016-08-09T04:36:44.820Z,72.13
2016-08-09T04:37:34.070Z,72.12
2016-08-09T04:38:44.509Z,71.90
2016-08-09T04:39:52.637Z,70.69
2016-08-09T04:40:45.410Z,71.55
2016-08-09T04:41:37.889Z,71.50
2016-08-09T04:42:26.049Z,71.60
2016-08-09T04:43:32.439Z,71.59
2016-08-09T04:44:27.424Z,71.59
2016-08-09T04:45:37.183Z,71.59
2016-08-09T04:46:38.736Z,71.69
2016-08-09T04:48:44.410Z,71.77
2016-08-09T04:49:44.587Z,71.75
2016-08-09T04:50:38.672Z,71.59
2016-08-09T04:51:25.998Z,71.42
2016-08-09T04:52:36.340Z,71.70
2016-08-09T04:53:31.735Z,71.58
2016-08-09T04:54:33.604Z,71.60
2016-08-09T04:55:44.730Z,71.54
2016-08-09T04:56:48.238Z,71.48
2016-08-09T04:57:19.207Z,71.74
2016-08-09T04:58:32.183Z,71.99
2016-08-09T04:59:43.248Z,72.27
2016-08-09T05:00:22.058Z,72.62
2016-08-09T05:01:43.922Z,72.50
2016-08-09T05:02:32.556Z,72.54
2016-08-09T05:03:39.306Z,72.57
2016-08-09T05:04:44.082Z,72.78
2016-08-09T05:05:49.707Z,72.79
2016-08-09T05:06:49.765Z,72.81
2016-08-09T05:07:54.496Z,72.62
2016-08-09T05:08:50.166Z,72.67
2016-08-09T05:09:44.509Z,72.83
2016-08-09T05:10:42.977Z,73.13
2016-08-09T05:11:42.888Z,73.21
2016-08-09T05:12:50.212Z,73.22
2016-08-09T05:13:52.694Z,73.01
2016-08-09T05:14:44.666Z,72.67
2016-08-09T05:15:36.332Z,72.31
2016-08-09T05:16:38.715Z,72.39
2016-08-09T05:17:44.524Z,72.61
2016-08-09T05:18:40.247Z,72.82
2016-08-09T05:19:43.126Z,73.00
2016-08-09T05:20:44.778Z,73.06
2016-08-09T05:21:45.179Z,72.76
2016-08-09T05:22:42.937Z,72.93
2016-08-09T05:23:47.902Z,73.17
2016-08-09T05:24:40.557Z,73.07
2016-08-09T05:25:48.640Z,73.35
2016-08-09T05:26:33.541Z,73.46
2016-08-09T05:27:43.650Z,73.45
2016-08-09T05:28:38.740Z,73.40
2016-08-09T05:29:16.128Z,73.72
2016-08-09T05:30:41.950Z,73.55
2016-08-09T05:31:44.287Z,73.39
2016-08-09T05:32:33.071Z,73.32
2016-08-09T05:33:38.092Z,73.23
2016-08-09T05:34:35.096Z,73.27
2016-08-09T05:35:23.521Z,73.22
2016-08-09T05:36:36.559Z,72.16
2016-08-09T05:37:40.890Z,72.04
2016-08-09T05:38:43.137Z,72.92
2016-08-09T05:39:28.394Z,73.06
2016-08-09T05:40:24.123Z,73.19
2016-08-09T05:41:38.422Z,73.12
2016-08-09T05:42:35.712Z,72.88
2016-08-09T05:43:38.787Z,72.72
2016-08-09T05:44:33.252Z,72.61
2016-08-09T05:45:37.869Z,72.63
2016-08-09T05:46:43.960Z,72.43
2016-08-09T05:47:31.622Z,72.18
2016-08-09T05:48:37.705Z,72.00
2016-08-09T05:49:45.614Z,71.77
2016-08-09T05:50:37.659Z,71.70
2016-08-09T05:51:34.579Z,71.55
2016-08-09T05:52:37.413Z,70.24
2016-08-09T05:53:33.438Z,70.04
2016-08-09T05:54:28.956Z,70.95
2016-08-09T05:55:31.067Z,71.31
2016-08-09T05:56:39.090Z,70.88
2016-08-09T05:57:44.138Z,70.44
2016-08-09T05:58:36.896Z,70.16
2016-08-09T05:59:34.498Z,69.98
2016-08-09T06:00:39.137Z,69.88
2016-08-09T06:01:34.108Z,69.73
2016-08-09T06:02:32.658Z,69.63
2016-08-09T06:03:35.664Z,69.45
2016-08-09T06:04:19.839Z,69.28
2016-08-09T06:05:45.681Z,69.17
2016-08-09T06:06:21.013Z,69.05
2016-08-09T06:07:37.552Z,68.94
2016-08-09T06:08:42.511Z,68.76
2016-08-09T06:09:38.819Z,68.72
2016-08-09T06:10:33.366Z,68.58
2016-08-09T06:11:31.038Z,68.52
2016-08-09T06:12:19.736Z,68.43
2016-08-09T06:13:30.561Z,68.39
2016-08-09T06:14:42.904Z,68.38
2016-08-09T06:15:38.735Z,68.35
2016-08-09T06:16:24.887Z,68.32
2016-08-09T06:17:36.396Z,68.25
2016-08-09T06:18:33.248Z,68.20
2016-08-09T06:19:33.014Z,68.18
2016-08-09T06:20:42.394Z,68.14
2016-08-09T06:21:38.215Z,68.10
2016-08-09T06:22:15.845Z,68.05
2016-08-09T06:23:46.120Z,68.05
2016-08-09T06:24:48.390Z,68.08
2016-08-09T06:25:42.054Z,68.16
2016-08-09T06:26:24.284Z,68.19
2016-08-09T06:27:38.790Z,68.20
2016-08-09T06:28:45.385Z,68.15
2016-08-09T06:29:39.155Z,68.10
2016-08-09T06:30:42.669Z,68.08
2016-08-09T06:31:15.852Z,68.08
2016-08-09T06:32:39.127Z,68.12
2016-08-09T06:34:32.237Z,68.10
2016-08-09T06:35:32.451Z,68.11
2016-08-09T06:36:48.367Z,68.16
2016-08-09T06:37:44.981Z,68.16
2016-08-09T06:38:43.989Z,68.20
2016-08-09T06:39:46.049Z,68.12
2016-08-09T06:40:54.558Z,68.16
2016-08-09T06:41:28.126Z,68.47
2016-08-09T06:42:47.458Z,68.40
2016-08-09T06:43:53.851Z,68.39
2016-08-09T06:44:37.697Z,68.33
2016-08-09T06:45:48.130Z,68.32
2016-08-09T06:46:14.220Z,68.43
2016-08-09T06:47:45.927Z,68.17
2016-08-09T06:49:27.715Z,68.06
2016-08-09T06:50:50.431Z,68.18
2016-08-09T06:51:37.708Z,68.71
2016-08-09T06:52:45.638Z,68.47
2016-08-09T06:53:43.410Z,67.48
2016-08-09T06:54:40.739Z,67.76
2016-08-09T06:55:12.273Z,67.84
2016-08-09T06:56:47.430Z,66.62
2016-08-09T06:57:39.435Z,66.48
2016-08-09T06:58:13.677Z,66.46
2016-08-09T06:59:43.516Z,66.48
2016-08-09T07:00:12.997Z,66.99
2016-08-09T07:01:52.566Z,66.67
2016-08-09T07:02:34.779Z,66.69
2016-08-09T07:04:45.769Z,67.59
2016-08-09T07:05:18.962Z,67.71
2016-08-09T07:06:11.816Z,67.92
2016-08-09T07:07:32.591Z,66.95
2016-08-09T07:08:33.023Z,67.72
2016-08-09T07:09:22.499Z,67.87
2016-08-09T07:10:40.137Z,67.92
2016-08-09T07:11:39.719Z,67.90
2016-08-09T07:12:36.644Z,67.91
2016-08-09T07:13:43.755Z,67.80
2016-08-09T07:14:44.698Z,67.75
2016-08-09T07:15:37.274Z,67.67
2016-08-09T07:16:24.686Z,67.57
2016-08-09T07:17:35.320Z,67.55
2016-08-09T07:19:20.142Z,67.48
2016-08-09T07:20:35.597Z,67.42
2016-08-09T07:21:44.784Z,67.51
2016-08-09T07:22:25.902Z,67.44
2016-08-09T07:23:37.734Z,67.46
2016-08-09T07:24:30.433Z,67.37
2016-08-09T07:25:40.057Z,67.32
2016-08-09T07:26:25.672Z,67.32
2016-08-09T07:27:37.138Z,67.42
2016-08-09T07:28:43.070Z,67.35
2016-08-09T07:29:21.627Z,67.35
2016-08-09T07:30:30.237Z,67.32
2016-08-09T07:31:13.016Z,67.25
2016-08-09T07:32:42.590Z,67.36
2016-08-09T07:33:43.133Z,67.28
2016-08-09T07:34:37.281Z,67.21
2016-08-09T07:35:21.353Z,67.21
2016-08-09T07:36:43.371Z,67.16
2016-08-09T07:37:40.706Z,67.12
2016-08-09T07:38:12.898Z,66.25
2016-08-09T07:39:49.290Z,66.84
2016-08-09T07:40:44.060Z,67.02
2016-08-09T07:41:24.957Z,67.01
2016-08-09T07:42:19.839Z,67.03
2016-08-09T07:43:42.158Z,67.00
2016-08-09T07:44:26.011Z,66.99
2016-08-09T07:45:44.308Z,66.96
2016-08-09T07:46:44.710Z,66.95
2016-08-09T07:47:14.849Z,66.94
2016-08-09T07:48:36.084Z,67.04
2016-08-09T07:49:48.763Z,66.91
2016-08-09T07:50:20.324Z,66.92
2016-08-09T07:51:37.400Z,66.98
2016-08-09T07:52:38.847Z,66.92
2016-08-09T07:53:52.852Z,66.87
2016-08-09T07:54:38.488Z,66.81
2016-08-09T07:55:24.704Z,66.83
2016-08-09T07:56:13.500Z,66.79
2016-08-09T07:57:38.293Z,66.82
2016-08-09T07:58:50.384Z,66.79
2016-08-09T07:59:39.440Z,66.79
2016-08-09T08:00:32.840Z,66.77
2016-08-09T08:01:30.004Z,66.76
2016-08-09T08:02:42.942Z,66.78
2016-08-09T08:04:28.876Z,66.82
2016-08-09T08:05:19.315Z,66.81
2016-08-09T08:06:19.246Z,66.82
2016-08-09T08:07:42.046Z,66.82
2016-08-09T08:08:20.463Z,66.57
2016-08-09T08:09:42.470Z,65.97
2016-08-09T08:10:43.401Z,66.53
2016-08-09T08:11:23.443Z,66.68
2016-08-09T08:12:20.156Z,65.64
2016-08-09T08:13:38.008Z,65.37
2016-08-09T08:14:37.723Z,65.25
2016-08-09T08:15:27.787Z,65.12
2016-08-09T08:16:32.839Z,65.46
2016-08-09T08:17:34.998Z,65.98
2016-08-09T08:19:13.482Z,65.20
2016-08-09T08:20:39.987Z,65.10
2016-08-09T08:21:13.444Z,65.08
2016-08-09T08:22:11.981Z,66.21
2016-08-09T08:23:44.136Z,66.25
2016-08-09T08:24:25.970Z,66.29
2016-08-09T08:25:11.288Z,66.38
2016-08-09T08:26:34.375Z,66.47
2016-08-09T08:27:32.566Z,66.44
2016-08-09T08:28:38.206Z,66.48
2016-08-09T08:29:21.264Z,66.43
2016-08-09T08:30:37.120Z,65.43
2016-08-09T08:31:27.603Z,65.18
2016-08-09T08:32:49.917Z,64.98
2016-08-09T08:33:19.600Z,65.01
2016-08-09T08:34:29.645Z,65.14
2016-08-09T08:35:14.062Z,65.92
2016-08-09T08:36:41.384Z,66.15
2016-08-09T08:37:43.773Z,66.18
2016-08-09T08:38:20.056Z,66.21
2016-08-09T08:39:20.405Z,66.28
2016-08-09T08:40:13.004Z,66.22
2016-08-09T08:41:45.842Z,66.25
2016-08-09T08:42:44.746Z,66.26
2016-08-09T08:43:14.650Z,66.09
2016-08-09T08:44:40.397Z,65.08
2016-08-09T08:45:27.575Z,64.87
2016-08-09T08:46:43.809Z,64.79
2016-08-09T08:47:26.320Z,64.68
2016-08-09T08:48:31.855Z,64.62
2016-08-09T08:49:42.297Z,64.55
2016-08-09T08:50:31.558Z,64.58
2016-08-09T08:51:32.916Z,65.54
2016-08-09T08:52:36.895Z,65.79
2016-08-09T08:53:14.598Z,65.93
2016-08-09T08:54:48.223Z,65.95
2016-08-09T08:55:31.341Z,66.01
2016-08-09T08:56:36.147Z,66.03
2016-08-09T08:57:29.505Z,66.11
2016-08-09T08:58:13.539Z,66.07
2016-08-09T08:59:19.128Z,66.07
2016-08-09T09:00:25.363Z,66.07
2016-08-09T09:01:37.688Z,66.01
2016-08-09T09:02:20.927Z,66.05
2016-08-09T09:03:36.996Z,66.02
2016-08-09T09:04:29.545Z,66.01
2016-08-09T09:05:33.168Z,66.00
2016-08-09T09:06:14.930Z,65.90
2016-08-09T09:07:44.525Z,65.87
2016-08-09T09:08:31.937Z,65.95
2016-08-09T09:09:31.525Z,65.88
2016-08-09T09:10:39.781Z,65.90
2016-08-09T09:11:30.703Z,65.91
2016-08-09T09:12:36.225Z,65.86
2016-08-09T09:13:39.639Z,65.87
2016-08-09T09:14:37.260Z,65.87
2016-08-09T09:15:25.469Z,65.79
2016-08-09T09:16:29.616Z,65.90
2016-08-09T09:17:42.679Z,65.90
2016-08-09T09:18:29.808Z,65.88
2016-08-09T09:19:47.263Z,65.99
2016-08-09T09:20:38.825Z,65.88
2016-08-09T09:21:35.814Z,65.90
2016-08-09T09:22:38.360Z,65.91
2016-08-09T09:23:43.734Z,65.95
2016-08-09T09:24:39.422Z,65.96
2016-08-09T09:25:14.275Z,65.89
2016-08-09T09:26:35.695Z,65.92
2016-08-09T09:27:13.505Z,65.95
2016-08-09T09:28:24.757Z,65.95
2016-08-09T09:29:44.343Z,65.93
2016-08-09T09:30:44.292Z,65.95
2016-08-09T09:31:41.500Z,65.97
2016-08-09T09:32:30.115Z,65.96
2016-08-09T09:33:27.465Z,65.98
2016-08-09T09:34:24.851Z,65.95
2016-08-09T09:35:27.476Z,65.93
2016-08-09T09:36:37.771Z,65.95
2016-08-09T09:37:12.477Z,65.95
2016-08-09T09:38:45.934Z,64.79
2016-08-09T09:39:37.458Z,64.70
2016-08-09T09:40:36.960Z,64.56
2016-08-09T09:41:24.288Z,64.47
2016-08-09T09:42:20.237Z,64.42
2016-08-09T09:43:13.340Z,64.51
2016-08-09T09:44:32.787Z,64.51
2016-08-09T09:45:36.854Z,64.32
2016-08-09T09:46:22.243Z,64.35
2016-08-09T09:47:29.357Z,64.36
2016-08-09T09:48:24.039Z,64.35
2016-08-09T09:49:39.962Z,64.23
2016-08-09T09:50:42.687Z,64.32
2016-08-09T09:51:19.279Z,64.31
2016-08-09T09:52:37.909Z,64.33
2016-08-09T09:53:50.725Z,64.32
2016-08-09T09:54:42.005Z,65.27
2016-08-09T09:55:25.442Z,65.53
2016-08-09T09:56:21.778Z,65.66
2016-08-09T09:57:43.614Z,65.72
2016-08-09T09:58:14.179Z,65.76
2016-08-09T09:59:28.089Z,65.71
2016-08-09T10:00:18.698Z,65.77
2016-08-09T10:01:32.568Z,65.76
2016-08-09T10:02:31.065Z,65.83
2016-08-09T10:03:43.930Z,65.82
2016-08-09T10:04:43.710Z,65.80
2016-08-09T10:05:12.278Z,65.82
2016-08-09T10:06:23.701Z,64.76
2016-08-09T10:07:38.841Z,65.59
2016-08-09T10:08:45.301Z,65.71
2016-08-09T10:09:19.036Z,65.76
2016-08-09T10:10:31.096Z,65.78
2016-08-09T10:11:42.162Z,65.80
2016-08-09T10:12:38.375Z,65.80
2016-08-09T10:13:30.554Z,65.77
2016-08-09T10:14:38.968Z,65.79
2016-08-09T10:15:24.426Z,65.79
2016-08-09T10:16:30.822Z,65.78
2016-08-09T10:17:27.717Z,65.76
2016-08-09T10:18:34.772Z,65.78
2016-08-09T10:20:42.022Z,65.77
2016-08-09T10:21:29.491Z,65.75
2016-08-09T10:22:33.401Z,65.79
2016-08-09T10:23:24.446Z,65.74
2016-08-09T10:24:44.176Z,65.77
2016-08-09T10:25:41.213Z,65.77
2016-08-09T10:26:37.475Z,65.74
2016-08-09T10:27:29.136Z,65.75
2016-08-09T10:28:38.445Z,65.74
2016-08-09T10:29:32.847Z,65.74
2016-08-09T10:30:25.938Z,65.73
2016-08-09T10:31:40.820Z,65.54
2016-08-09T10:32:38.094Z,64.66
2016-08-09T10:33:43.280Z,64.42
2016-08-09T10:34:46.619Z,64.36
2016-08-09T10:35:57.304Z,64.24
2016-08-09T10:36:26.711Z,64.19
2016-08-09T10:37:35.606Z,64.19
2016-08-09T10:38:23.449Z,64.16
2016-08-09T10:39:23.261Z,64.13
2016-08-09T10:40:43.261Z,64.09
2016-08-09T10:41:38.366Z,64.32
2016-08-09T10:42:39.767Z,65.10
2016-08-09T10:43:44.011Z,65.36
2016-08-09T10:44:13.195Z,65.45
2016-08-09T10:45:13.056Z,65.50
2016-08-09T10:46:15.155Z,65.55
2016-08-09T10:47:46.286Z,65.53
2016-08-09T10:48:40.891Z,65.54
2016-08-09T10:49:49.404Z,65.53
2016-08-09T10:50:37.502Z,65.55
2016-08-09T10:51:25.795Z,65.54
2016-08-09T10:52:36.181Z,65.52
2016-08-09T10:53:38.025Z,65.56
2016-08-09T10:54:13.109Z,65.37
2016-08-09T10:55:13.214Z,64.52
2016-08-09T10:56:14.795Z,64.33
2016-08-09T10:57:42.615Z,64.19
2016-08-09T10:58:44.040Z,64.16
2016-08-09T10:59:12.276Z,64.11
2016-08-09T11:00:37.468Z,64.10
2016-08-09T11:01:42.122Z,64.08
2016-08-09T11:02:39.580Z,64.07
2016-08-09T11:03:30.483Z,64.02
2016-08-09T11:04:33.817Z,64.24
2016-08-09T11:05:47.449Z,65.05
2016-08-09T11:06:36.281Z,65.27
2016-08-09T11:07:24.165Z,65.37
2016-08-09T11:08:23.298Z,65.44
2016-08-09T11:09:38.001Z,65.48
2016-08-09T11:10:44.065Z,65.47
2016-08-09T11:11:35.119Z,65.47
2016-08-09T11:12:47.630Z,65.55
2016-08-09T11:13:35.330Z,64.53
2016-08-09T11:14:38.674Z,64.28
2016-08-09T11:15:38.851Z,64.19
2016-08-09T11:16:39.153Z,64.12
2016-08-09T11:17:37.240Z,64.08
2016-08-09T11:18:36.645Z,64.04
2016-08-09T11:19:39.974Z,65.04
2016-08-09T11:20:28.099Z,65.28
2016-08-09T11:21:37.923Z,65.39
2016-08-09T11:22:20.490Z,65.46
2016-08-09T11:23:43.432Z,65.47
2016-08-09T11:24:33.710Z,65.52
2016-08-09T11:25:33.291Z,65.48
2016-08-09T11:26:30.819Z,65.54
2016-08-09T11:27:32.179Z,65.50
2016-08-09T11:28:19.373Z,65.53
2016-08-09T11:29:20.164Z,65.50
2016-08-09T11:30:26.666Z,65.53
2016-08-09T11:31:42.408Z,65.51
2016-08-09T11:32:36.866Z,65.51
2016-08-09T11:33:42.369Z,65.50
2016-08-09T11:34:43.621Z,65.55
2016-08-09T11:35:38.459Z,65.53
2016-08-09T11:36:26.398Z,65.53
2016-08-09T11:37:40.148Z,65.55
2016-08-09T11:38:32.890Z,65.51
2016-08-09T11:39:46.221Z,65.37
2016-08-09T11:40:31.707Z,64.50
2016-08-09T11:41:31.751Z,64.25
2016-08-09T11:42:42.038Z,64.12
2016-08-09T11:43:12.906Z,64.07
2016-08-09T11:44:18.637Z,63.99
2016-08-09T11:45:18.695Z,63.98
2016-08-09T11:46:32.764Z,64.04
2016-08-09T11:47:29.603Z,65.00
2016-08-09T11:48:49.228Z,65.24
2016-08-09T11:49:14.788Z,65.33
2016-08-09T11:50:13.930Z,65.38
2016-08-09T11:51:33.627Z,65.44
2016-08-09T11:52:12.398Z,65.45
2016-08-09T11:53:35.410Z,65.44
2016-08-09T11:54:40.053Z,65.49
2016-08-09T11:55:29.904Z,65.46
2016-08-09T11:56:45.823Z,65.44
2016-08-09T11:57:30.398Z,65.45
2016-08-09T11:58:43.364Z,65.45
2016-08-09T11:59:44.713Z,65.47
2016-08-09T12:00:26.556Z,65.50
2016-08-09T12:01:14.188Z,65.46
2016-08-09T12:02:38.650Z,65.45
2016-08-09T12:03:48.365Z,65.44
2016-08-09T12:04:48.380Z,65.44
2016-08-09T12:05:25.139Z,65.45
2016-08-09T12:06:40.964Z,65.44
2016-08-09T12:07:55.978Z,65.42
2016-08-09T12:08:32.243Z,65.39
2016-08-09T12:09:29.917Z,65.40
2016-08-09T12:10:32.505Z,65.41
2016-08-09T12:11:11.720Z,65.44
2016-08-09T12:12:37.868Z,65.34
2016-08-09T12:13:42.278Z,65.34
2016-08-09T12:14:37.447Z,65.29
2016-08-09T12:15:33.892Z,65.32
2016-08-09T12:16:40.910Z,65.31
2016-08-09T12:17:30.373Z,65.32
2016-08-09T12:18:23.501Z,65.34
2016-08-09T12:19:32.728Z,65.33
2016-08-09T12:20:32.951Z,65.35
2016-08-09T12:21:45.332Z,65.34
2016-08-09T12:22:35.892Z,65.30
2016-08-09T12:23:39.391Z,65.28
2016-08-09T12:24:51.675Z,65.29
2016-08-09T12:25:32.318Z,65.29
2016-08-09T12:26:36.720Z,65.23
2016-08-09T12:27:33.179Z,65.20
2016-08-09T12:28:33.832Z,65.18
2016-08-09T12:29:42.555Z,65.17
2016-08-09T12:30:45.122Z,65.19
2016-08-09T12:31:27.154Z,65.18
2016-08-09T12:32:29.420Z,65.16
2016-08-09T12:33:38.830Z,65.01
2016-08-09T12:34:38.124Z,64.12
2016-08-09T12:35:25.757Z,63.90
2016-08-09T12:36:41.787Z,64.74
2016-08-09T12:37:40.699Z,64.94
2016-08-09T12:38:26.142Z,65.03
2016-08-09T12:39:42.697Z,65.03
2016-08-09T12:40:36.676Z,65.12
2016-08-09T12:41:19.917Z,65.08
2016-08-09T12:42:22.352Z,65.10
2016-08-09T12:43:39.773Z,65.15
2016-08-09T12:44:13.972Z,64.35
2016-08-09T12:45:39.637Z,64.97
2016-08-09T12:46:31.874Z,65.08
2016-08-09T12:47:39.929Z,65.16
2016-08-09T12:48:54.564Z,65.22
2016-08-09T12:50:36.192Z,65.25
2016-08-09T12:51:43.171Z,65.24
2016-08-09T12:52:37.709Z,65.24
2016-08-09T12:53:42.649Z,65.28
2016-08-09T12:54:19.440Z,65.31
2016-08-09T12:55:39.396Z,65.33
2016-08-09T12:56:13.581Z,65.29
2016-08-09T12:57:17.949Z,65.32
2016-08-09T12:58:20.304Z,65.36
2016-08-09T12:59:42.493Z,65.33
2016-08-09T13:00:37.741Z,64.33
2016-08-09T13:01:54.551Z,65.11
2016-08-09T13:02:38.235Z,65.25
2016-08-09T13:03:41.867Z,65.33
2016-08-09T13:05:25.261Z,65.34
2016-08-09T13:06:27.318Z,65.37